Airfield :
LOGIN :

Register | Disclaimer

   EN    FR    IT 

 










Legend :    VFR   Marginal VFR   IFR   Intensive IFR   Very Intensive IFR
Visi :
Ceiling :
>= 8 km
>= 3000ft
5 to 8 km
1000 to 3000 ft
1500m to 5 km
500 to 1000 ft
800 to 1500m
200 to 500 ft
< 800m
< 200 ft
Symbols :   Thunderstorms  Fog  Heavy snow  Heavy precipitations  Wind > 20 kt
SIGMETs :     Misc.  Thunderstorms  Icing  Turbulence  Mountain Waves  Volcanic Ashes







- Airport Elevation : 37 ft


EHVL - Vlieland Heliport

CURRENT METAR :
  • 181755Z AUTO 28018KT 9999 FEW015CB BKN034 BKN041 05/02 Q0998 BLU

EXPIRED METARs :
  • 181734Z AUTO 28022KT 9999 FEW015CB BKN120 BKN190 05/02 Q0998 BLU
  • 181729Z AUTO 28021KT 9999 FEW015CB SCT021 BKN130 05/03 Q0998 WHT
  • 181708Z AUTO 28023KT 9999 FEW015CB BKN150 05/03 Q0998 BLU
  • 181703Z AUTO 28021KT 9999 FEW015CB SCT022 BKN028 05/03 Q0998 WHT
  • 181659Z AUTO 28017G27KT 9000 BR FEW015CB SCT028 BKN034 04/02 Q0998 BLU
  • 181637Z AUTO 30018KT 6000 -SHRA FEW001 BKN015CB BKN019 04/02 Q0998 WHT
  • 181629Z AUTO 30023KT 3800 -RA FEW007 SCT015CB BKN021 04/01 Q0998 GRN
  • 181625Z AUTO 29023KT 9999 -RA FEW015CB SCT027 BKN039 04/02 Q0998 BLU
  • 181602Z AUTO 28023KT 9999 FEW015CB SCT090 BKN096 05/02 Q0997 BLU
  • 181555Z AUTO 28021KT 9999 BKN160 05/02 Q0997 BLU
  • 181525Z AUTO 28023KT 9999 FEW017 BKN130 05/03 Q0997 BLU
  • 181503Z AUTO 28022KT 9999 FEW016 BKN097 BKN100 05/02 Q0997 BLU

Expired Forecast.
No reported NOTAMs for that airfield.



MET'MAP, your aeronautical weather chart ! - Copyright ORBIFLY December 2007 - Disclaimer

ORBIFLY MET'MAP TEAM :

Programming & Development : Alexandra Zaïnal
Concept & Development : Baudouin d'Aumeries
Co-Development & Prog : Marc-Olivier Méhu
Technical & hardware support : Manuel Goepfert

Contact : metmap@orbifly.com




SOURCES & CREDITS :

   NOAA